sensor_id;sensor_type;location;lat;lon;timestamp;P1;durP1;ratioP1;P2;durP2;ratioP2
12112;SDS011;6120;52.250;8.478;2023-10-13T00:02:00;88.15;;;38.95;;
12112;SDS011;6120;52.250;8.478;2023-10-13T00:04:36;91.90;;;37.92;;
12112;SDS011;6120;52.250;8.478;2023-10-13T00:07:07;87.15;;;37.95;;
12112;SDS011;6120;52.250;8.478;2023-10-13T00:09:36;81.50;;;37.15;;
12112;SDS011;6120;52.250;8.478;2023-10-13T00:12:08;77.35;;;35.53;;
12112;SDS011;6120;52.250;8.478;2023-10-13T00:14:40;92.82;;;40.00;;
12112;SDS011;6120;52.250;8.478;2023-10-13T00:17:08;90.20;;;39.53;;
12112;SDS011;6120;52.250;8.478;2023-10-13T00:19:47;88.25;;;39.78;;
12112;SDS011;6120;52.250;8.478;2023-10-13T00:22:18;91.65;;;39.15;;
12112;SDS011;6120;52.250;8.478;2023-10-13T00:24:49;69.80;;;33.88;;
12112;SDS011;6120;52.250;8.478;2023-10-13T00:27:20;80.15;;;36.85;;
12112;SDS011;6120;52.250;8.478;2023-10-13T00:29:56;85.28;;;39.63;;
12112;SDS011;6120;52.250;8.478;2023-10-13T00:32:42;91.30;;;40.20;;
12112;SDS011;6120;52.250;8.478;2023-10-13T00:35:24;86.10;;;37.78;;
12112;SDS011;6120;52.250;8.478;2023-10-13T00:37:56;88.28;;;37.47;;
12112;SDS011;6120;52.250;8.478;2023-10-13T00:40:31;81.10;;;36.72;;
12112;SDS011;6120;52.250;8.478;2023-10-13T00:42:58;75.82;;;36.90;;
12112;SDS011;6120;52.250;8.478;2023-10-13T00:45:47;77.45;;;36.58;;
12112;SDS011;6120;52.250;8.478;2023-10-13T00:48:24;78.50;;;36.47;;
12112;SDS011;6120;52.250;8.478;2023-10-13T00:50:56;75.18;;;35.13;;
12112;SDS011;6120;52.250;8.478;2023-10-13T00:53:25;78.13;;;35.88;;
12112;SDS011;6120;52.250;8.478;2023-10-13T00:55:52;62.30;;;32.92;;
12112;SDS011;6120;52.250;8.478;2023-10-13T00:58:27;70.15;;;34.20;;
12112;SDS011;6120;52.250;8.478;2023-10-13T01:00:55;74.40;;;34.25;;
12112;SDS011;6120;52.250;8.478;2023-10-13T01:03:53;76.28;;;35.33;;
12112;SDS011;6120;52.250;8.478;2023-10-13T01:09:41;54.88;;;30.05;;
12112;SDS011;6120;52.250;8.478;2023-10-13T01:12:42;63.92;;;34.22;;
12112;SDS011;6120;52.250;8.478;2023-10-13T01:15:43;70.03;;;36.00;;
12112;SDS011;6120;52.250;8.478;2023-10-13T01:18:13;64.63;;;34.53;;
12112;SDS011;6120;52.250;8.478;2023-10-13T01:20:44;61.58;;;32.40;;
12112;SDS011;6120;52.250;8.478;2023-10-13T01:23:26;57.78;;;30.38;;
12112;SDS011;6120;52.250;8.478;2023-10-13T01:26:02;50.35;;;29.10;;
12112;SDS011;6120;52.250;8.478;2023-10-13T01:28:43;56.35;;;31.50;;
12112;SDS011;6120;52.250;8.478;2023-10-13T01:31:13;59.13;;;32.50;;
12112;SDS011;6120;52.250;8.478;2023-10-13T01:33:51;69.32;;;33.67;;
12112;SDS011;6120;52.250;8.478;2023-10-13T01:36:21;60.85;;;31.23;;
12112;SDS011;6120;52.250;8.478;2023-10-13T01:38:48;55.15;;;31.42;;
12112;SDS011;6120;52.250;8.478;2023-10-13T01:41:16;68.18;;;36.15;;
12112;SDS011;6120;52.250;8.478;2023-10-13T01:43:43;57.60;;;31.80;;
12112;SDS011;6120;52.250;8.478;2023-10-13T01:46:10;56.28;;;31.40;;
12112;SDS011;6120;52.250;8.478;2023-10-13T01:48:47;57.92;;;31.30;;
12112;SDS011;6120;52.250;8.478;2023-10-13T01:51:26;71.25;;;34.30;;
12112;SDS011;6120;52.250;8.478;2023-10-13T01:56:44;54.95;;;31.30;;
12112;SDS011;6120;52.250;8.478;2023-10-13T01:59:11;67.70;;;33.95;;
12112;SDS011;6120;52.250;8.478;2023-10-13T02:01:38;55.10;;;31.40;;
12112;SDS011;6120;52.250;8.478;2023-10-13T02:04:06;59.30;;;32.25;;
12112;SDS011;6120;52.250;8.478;2023-10-13T02:06:33;64.18;;;33.22;;
12112;SDS011;6120;52.250;8.478;2023-10-13T02:09:07;55.72;;;30.15;;
12112;SDS011;6120;52.250;8.478;2023-10-13T02:11:43;50.53;;;29.05;;
12112;SDS011;6120;52.250;8.478;2023-10-13T02:14:16;62.30;;;32.78;;
12112;SDS011;6120;52.250;8.478;2023-10-13T02:20:01;56.25;;;29.27;;
12112;SDS011;6120;52.250;8.478;2023-10-13T02:22:34;55.33;;;29.85;;
12112;SDS011;6120;52.250;8.478;2023-10-13T02:25:02;58.08;;;31.85;;
12112;SDS011;6120;52.250;8.478;2023-10-13T02:27:33;59.03;;;32.03;;
12112;SDS011;6120;52.250;8.478;2023-10-13T02:30:07;50.78;;;29.60;;
12112;SDS011;6120;52.250;8.478;2023-10-13T02:32:40;53.97;;;27.63;;
12112;SDS011;6120;52.250;8.478;2023-10-13T02:35:10;56.03;;;29.48;;
12112;SDS011;6120;52.250;8.478;2023-10-13T02:37:41;48.78;;;26.65;;
12112;SDS011;6120;52.250;8.478;2023-10-13T02:40:20;44.80;;;27.00;;
12112;SDS011;6120;52.250;8.478;2023-10-13T02:42:49;43.63;;;26.90;;
12112;SDS011;6120;52.250;8.478;2023-10-13T02:45:19;49.53;;;26.80;;
12112;SDS011;6120;52.250;8.478;2023-10-13T02:47:52;39.75;;;24.35;;
12112;SDS011;6120;52.250;8.478;2023-10-13T02:50:39;44.03;;;25.40;;
12112;SDS011;6120;52.250;8.478;2023-10-13T02:53:10;37.88;;;23.35;;
12112;SDS011;6120;52.250;8.478;2023-10-13T02:55:53;38.55;;;23.67;;
12112;SDS011;6120;52.250;8.478;2023-10-13T02:58:25;37.50;;;22.92;;
12112;SDS011;6120;52.250;8.478;2023-10-13T03:01:07;36.72;;;22.48;;
12112;SDS011;6120;52.250;8.478;2023-10-13T03:03:45;38.90;;;23.13;;
12112;SDS011;6120;52.250;8.478;2023-10-13T03:06:14;40.38;;;22.88;;
12112;SDS011;6120;52.250;8.478;2023-10-13T03:08:41;41.03;;;24.20;;
12112;SDS011;6120;52.250;8.478;2023-10-13T03:11:10;39.47;;;24.27;;
12112;SDS011;6120;52.250;8.478;2023-10-13T03:13:37;43.38;;;24.13;;
12112;SDS011;6120;52.250;8.478;2023-10-13T03:16:11;34.70;;;21.55;;
12112;SDS011;6120;52.250;8.478;2023-10-13T03:18:46;36.78;;;22.85;;
12112;SDS011;6120;52.250;8.478;2023-10-13T03:21:23;38.95;;;22.30;;
12112;SDS011;6120;52.250;8.478;2023-10-13T03:27:02;32.75;;;21.70;;
12112;SDS011;6120;52.250;8.478;2023-10-13T03:29:48;40.08;;;22.63;;
12112;SDS011;6120;52.250;8.478;2023-10-13T03:32:21;44.60;;;23.20;;
12112;SDS011;6120;52.250;8.478;2023-10-13T03:34:51;36.03;;;20.95;;
12112;SDS011;6120;52.250;8.478;2023-10-13T03:37:39;38.65;;;22.50;;
12112;SDS011;6120;52.250;8.478;2023-10-13T03:40:13;39.10;;;21.60;;
12112;SDS011;6120;52.250;8.478;2023-10-13T03:53:41;33.95;;;20.30;;
12112;SDS011;6120;52.250;8.478;2023-10-13T03:59:58;34.13;;;17.92;;
12112;SDS011;6120;52.250;8.478;2023-10-13T04:06:23;33.25;;;18.88;;
12112;SDS011;6120;52.250;8.478;2023-10-13T04:09:28;32.05;;;19.70;;
12112;SDS011;6120;52.250;8.478;2023-10-13T04:12:17;30.20;;;17.45;;
12112;SDS011;6120;52.250;8.478;2023-10-13T04:14:57;29.73;;;17.45;;
12112;SDS011;6120;52.250;8.478;2023-10-13T04:24:25;27.92;;;17.35;;
12112;SDS011;6120;52.250;8.478;2023-10-13T04:35:40;35.30;;;17.35;;
12112;SDS011;6120;52.250;8.478;2023-10-13T04:38:43;29.40;;;16.90;;
12112;SDS011;6120;52.250;8.478;2023-10-13T04:45:32;24.55;;;15.82;;
12112;SDS011;6120;52.250;8.478;2023-10-13T04:48:18;24.52;;;14.43;;
12112;SDS011;6120;52.250;8.478;2023-10-13T04:54:31;26.92;;;15.93;;
12112;SDS011;6120;52.250;8.478;2023-10-13T04:57:21;19.70;;;12.52;;
12112;SDS011;6120;52.250;8.478;2023-10-13T05:00:05;25.05;;;16.15;;
12112;SDS011;6120;52.250;8.478;2023-10-13T05:02:39;25.35;;;14.70;;
12112;SDS011;6120;52.250;8.478;2023-10-13T05:07:52;25.05;;;15.20;;
12112;SDS011;6120;52.250;8.478;2023-10-13T05:10:37;23.63;;;13.98;;
12112;SDS011;6120;52.250;8.478;2023-10-13T05:13:22;25.10;;;15.18;;
12112;SDS011;6120;52.250;8.478;2023-10-13T05:16:34;21.90;;;13.80;;
12112;SDS011;6120;52.250;8.478;2023-10-13T05:20:05;24.58;;;14.75;;
12112;SDS011;6120;52.250;8.478;2023-10-13T05:22:30;24.83;;;15.35;;
12112;SDS011;6120;52.250;8.478;2023-10-13T05:25:18;25.60;;;14.52;;
12112;SDS011;6120;52.250;8.478;2023-10-13T05:28:03;22.02;;;13.30;;
12112;SDS011;6120;52.250;8.478;2023-10-13T05:31:02;19.98;;;12.07;;
12112;SDS011;6120;52.250;8.478;2023-10-13T05:33:48;26.73;;;13.05;;
12112;SDS011;6120;52.250;8.478;2023-10-13T05:36:33;19.92;;;11.65;;
12112;SDS011;6120;52.250;8.478;2023-10-13T05:39:18;18.10;;;11.05;;
12112;SDS011;6120;52.250;8.478;2023-10-13T05:42:04;21.30;;;11.73;;
12112;SDS011;6120;52.250;8.478;2023-10-13T05:44:49;17.52;;;10.25;;
12112;SDS011;6120;52.250;8.478;2023-10-13T05:47:34;19.15;;;11.40;;
12112;SDS011;6120;52.250;8.478;2023-10-13T05:50:10;19.45;;;10.23;;
12112;SDS011;6120;52.250;8.478;2023-10-13T05:52:47;18.27;;;11.93;;
12112;SDS011;6120;52.250;8.478;2023-10-13T05:55:36;17.88;;;11.07;;
12112;SDS011;6120;52.250;8.478;2023-10-13T05:58:43;19.38;;;10.85;;
12112;SDS011;6120;52.250;8.478;2023-10-13T06:01:28;20.73;;;12.38;;
12112;SDS011;6120;52.250;8.478;2023-10-13T06:04:13;18.55;;;12.00;;
12112;SDS011;6120;52.250;8.478;2023-10-13T06:06:58;22.02;;;11.43;;
12112;SDS011;6120;52.250;8.478;2023-10-13T06:09:43;15.82;;;10.70;;
12112;SDS011;6120;52.250;8.478;2023-10-13T06:12:28;16.88;;;10.77;;
12112;SDS011;6120;52.250;8.478;2023-10-13T06:15:15;18.67;;;10.93;;
12112;SDS011;6120;52.250;8.478;2023-10-13T06:20:51;17.80;;;11.23;;
12112;SDS011;6120;52.250;8.478;2023-10-13T06:23:36;16.55;;;10.52;;
12112;SDS011;6120;52.250;8.478;2023-10-13T06:26:21;15.98;;;10.43;;
12112;SDS011;6120;52.250;8.478;2023-10-13T06:29:06;18.30;;;11.85;;
12112;SDS011;6120;52.250;8.478;2023-10-13T06:31:34;17.73;;;11.00;;
12112;SDS011;6120;52.250;8.478;2023-10-13T06:34:01;16.88;;;10.65;;
12112;SDS011;6120;52.250;8.478;2023-10-13T06:36:29;19.42;;;11.30;;
12112;SDS011;6120;52.250;8.478;2023-10-13T06:38:56;15.32;;;10.23;;
12112;SDS011;6120;52.250;8.478;2023-10-13T06:41:43;14.23;;;9.98;;
12112;SDS011;6120;52.250;8.478;2023-10-13T06:44:10;15.57;;;8.90;;
12112;SDS011;6120;52.250;8.478;2023-10-13T06:46:41;13.57;;;7.75;;
12112;SDS011;6120;52.250;8.478;2023-10-13T06:49:09;15.60;;;9.00;;
12112;SDS011;6120;52.250;8.478;2023-10-13T06:51:38;13.43;;;8.70;;
12112;SDS011;6120;52.250;8.478;2023-10-13T06:54:05;15.00;;;8.75;;
12112;SDS011;6120;52.250;8.478;2023-10-13T06:56:37;13.48;;;8.60;;
12112;SDS011;6120;52.250;8.478;2023-10-13T06:59:06;16.88;;;8.85;;
12112;SDS011;6120;52.250;8.478;2023-10-13T07:01:33;12.90;;;7.70;;
12112;SDS011;6120;52.250;8.478;2023-10-13T07:04:07;20.63;;;9.82;;
12112;SDS011;6120;52.250;8.478;2023-10-13T07:06:43;13.18;;;7.95;;
12112;SDS011;6120;52.250;8.478;2023-10-13T07:09:17;15.25;;;8.20;;
12112;SDS011;6120;52.250;8.478;2023-10-13T07:12:05;16.17;;;8.70;;
12112;SDS011;6120;52.250;8.478;2023-10-13T07:14:46;16.13;;;8.15;;
12112;SDS011;6120;52.250;8.478;2023-10-13T07:17:29;13.10;;;7.28;;
12112;SDS011;6120;52.250;8.478;2023-10-13T07:20:00;15.63;;;7.95;;
12112;SDS011;6120;52.250;8.478;2023-10-13T07:22:41;17.50;;;8.43;;
12112;SDS011;6120;52.250;8.478;2023-10-13T07:25:12;16.27;;;8.63;;
12112;SDS011;6120;52.250;8.478;2023-10-13T07:27:50;12.27;;;7.55;;
12112;SDS011;6120;52.250;8.478;2023-10-13T07:30:16;16.67;;;8.27;;
12112;SDS011;6120;52.250;8.478;2023-10-13T07:32:46;12.85;;;7.30;;
12112;SDS011;6120;52.250;8.478;2023-10-13T07:35:17;13.85;;;8.18;;
12112;SDS011;6120;52.250;8.478;2023-10-13T07:37:50;13.07;;;6.88;;
12112;SDS011;6120;52.250;8.478;2023-10-13T07:40:21;13.93;;;7.85;;
12112;SDS011;6120;52.250;8.478;2023-10-13T07:43:06;14.70;;;7.32;;
12112;SDS011;6120;52.250;8.478;2023-10-13T07:45:37;13.93;;;8.20;;
12112;SDS011;6120;52.250;8.478;2023-10-13T07:48:07;13.70;;;7.85;;
12112;SDS011;6120;52.250;8.478;2023-10-13T07:50:47;12.73;;;8.02;;
12112;SDS011;6120;52.250;8.478;2023-10-13T07:53:15;12.38;;;7.30;;
12112;SDS011;6120;52.250;8.478;2023-10-13T07:55:50;12.95;;;7.70;;
12112;SDS011;6120;52.250;8.478;2023-10-13T07:58:28;22.00;;;9.40;;
12112;SDS011;6120;52.250;8.478;2023-10-13T08:00:58;15.90;;;8.20;;
12112;SDS011;6120;52.250;8.478;2023-10-13T08:03:25;12.73;;;8.23;;
12112;SDS011;6120;52.250;8.478;2023-10-13T08:06:13;18.37;;;7.80;;
12112;SDS011;6120;52.250;8.478;2023-10-13T08:08:44;18.52;;;8.05;;
12112;SDS011;6120;52.250;8.478;2023-10-13T08:11:16;17.45;;;7.78;;
12112;SDS011;6120;52.250;8.478;2023-10-13T08:13:50;13.20;;;7.90;;
12112;SDS011;6120;52.250;8.478;2023-10-13T08:16:35;15.10;;;8.07;;
12112;SDS011;6120;52.250;8.478;2023-10-13T08:19:26;16.58;;;8.57;;
12112;SDS011;6120;52.250;8.478;2023-10-13T08:21:55;13.40;;;8.02;;
12112;SDS011;6120;52.250;8.478;2023-10-13T08:24:26;14.63;;;8.70;;
12112;SDS011;6120;52.250;8.478;2023-10-13T08:27:13;15.63;;;8.32;;
12112;SDS011;6120;52.250;8.478;2023-10-13T08:32:17;12.70;;;7.57;;
12112;SDS011;6120;52.250;8.478;2023-10-13T08:35:04;15.48;;;8.50;;
12112;SDS011;6120;52.250;8.478;2023-10-13T08:37:32;17.67;;;9.05;;
12112;SDS011;6120;52.250;8.478;2023-10-13T08:40:13;14.93;;;8.68;;
12112;SDS011;6120;52.250;8.478;2023-10-13T08:43:06;17.58;;;9.48;;
12112;SDS011;6120;52.250;8.478;2023-10-13T08:45:39;15.00;;;8.77;;
12112;SDS011;6120;52.250;8.478;2023-10-13T08:48:07;14.68;;;8.75;;
12112;SDS011;6120;52.250;8.478;2023-10-13T08:50:43;15.65;;;8.30;;
12112;SDS011;6120;52.250;8.478;2023-10-13T08:53:24;13.90;;;6.82;;
12112;SDS011;6120;52.250;8.478;2023-10-13T08:58:46;17.67;;;7.88;;
12112;SDS011;6120;52.250;8.478;2023-10-13T09:01:24;15.63;;;7.25;;
12112;SDS011;6120;52.250;8.478;2023-10-13T09:04:10;11.95;;;6.70;;
12112;SDS011;6120;52.250;8.478;2023-10-13T09:06:45;12.27;;;6.88;;
12112;SDS011;6120;52.250;8.478;2023-10-13T09:09:26;10.43;;;5.75;;
12112;SDS011;6120;52.250;8.478;2023-10-13T09:11:53;11.73;;;5.53;;
12112;SDS011;6120;52.250;8.478;2023-10-13T09:14:37;10.55;;;6.07;;
12112;SDS011;6120;52.250;8.478;2023-10-13T09:17:10;16.42;;;6.18;;
12112;SDS011;6120;52.250;8.478;2023-10-13T09:19:53;11.57;;;6.05;;
12112;SDS011;6120;52.250;8.478;2023-10-13T09:22:23;11.00;;;6.15;;
12112;SDS011;6120;52.250;8.478;2023-10-13T09:25:02;13.05;;;5.10;;
12112;SDS011;6120;52.250;8.478;2023-10-13T09:27:32;11.07;;;5.72;;
12112;SDS011;6120;52.250;8.478;2023-10-13T09:30:00;10.15;;;5.63;;
12112;SDS011;6120;52.250;8.478;2023-10-13T09:32:45;10.18;;;5.35;;
12112;SDS011;6120;52.250;8.478;2023-10-13T09:35:16;10.07;;;5.00;;
12112;SDS011;6120;52.250;8.478;2023-10-13T09:37:49;10.50;;;4.90;;
12112;SDS011;6120;52.250;8.478;2023-10-13T09:40:17;11.05;;;4.30;;
12112;SDS011;6120;52.250;8.478;2023-10-13T09:43:00;9.07;;;4.15;;
12112;SDS011;6120;52.250;8.478;2023-10-13T09:45:34;11.60;;;5.18;;
12112;SDS011;6120;52.250;8.478;2023-10-13T09:48:33;7.32;;;4.20;;
12112;SDS011;6120;52.250;8.478;2023-10-13T09:51:11;9.40;;;3.95;;
12112;SDS011;6120;52.250;8.478;2023-10-13T09:53:55;14.65;;;4.47;;
12112;SDS011;6120;52.250;8.478;2023-10-13T09:56:31;8.20;;;4.38;;
12112;SDS011;6120;52.250;8.478;2023-10-13T09:59:10;8.63;;;4.57;;
12112;SDS011;6120;52.250;8.478;2023-10-13T10:01:42;9.35;;;3.60;;
12112;SDS011;6120;52.250;8.478;2023-10-13T10:04:17;11.93;;;3.97;;
12112;SDS011;6120;52.250;8.478;2023-10-13T10:06:55;10.05;;;4.28;;
12112;SDS011;6120;52.250;8.478;2023-10-13T10:09:31;10.27;;;4.28;;
12112;SDS011;6120;52.250;8.478;2023-10-13T10:17:28;13.32;;;5.40;;
12112;SDS011;6120;52.250;8.478;2023-10-13T10:19:59;13.05;;;4.55;;
12112;SDS011;6120;52.250;8.478;2023-10-13T10:22:32;11.23;;;4.55;;
12112;SDS011;6120;52.250;8.478;2023-10-13T10:25:03;9.93;;;4.22;;
12112;SDS011;6120;52.250;8.478;2023-10-13T10:27:54;9.18;;;4.35;;
12112;SDS011;6120;52.250;8.478;2023-10-13T10:30:27;9.43;;;4.13;;
12112;SDS011;6120;52.250;8.478;2023-10-13T10:32:55;13.68;;;4.47;;
12112;SDS011;6120;52.250;8.478;2023-10-13T10:35:42;12.68;;;4.40;;
12112;SDS011;6120;52.250;8.478;2023-10-13T10:41:01;10.80;;;3.75;;
12112;SDS011;6120;52.250;8.478;2023-10-13T10:46:25;11.55;;;4.18;;
12112;SDS011;6120;52.250;8.478;2023-10-13T10:48:56;10.13;;;4.07;;
12112;SDS011;6120;52.250;8.478;2023-10-13T10:51:27;13.65;;;4.05;;
12112;SDS011;6120;52.250;8.478;2023-10-13T10:53:58;12.07;;;4.68;;
12112;SDS011;6120;52.250;8.478;2023-10-13T10:56:37;10.95;;;4.10;;
12112;SDS011;6120;52.250;8.478;2023-10-13T10:59:05;6.93;;;3.92;;
12112;SDS011;6120;52.250;8.478;2023-10-13T11:01:45;12.02;;;4.60;;
12112;SDS011;6120;52.250;8.478;2023-10-13T11:04:17;13.98;;;4.55;;
12112;SDS011;6120;52.250;8.478;2023-10-13T11:09:31;10.85;;;4.00;;
12112;SDS011;6120;52.250;8.478;2023-10-13T11:14:42;8.50;;;4.40;;
12112;SDS011;6120;52.250;8.478;2023-10-13T11:17:18;13.57;;;4.10;;
12112;SDS011;6120;52.250;8.478;2023-10-13T11:19:51;10.23;;;3.83;;
12112;SDS011;6120;52.250;8.478;2023-10-13T11:22:18;12.80;;;4.20;;
12112;SDS011;6120;52.250;8.478;2023-10-13T11:24:59;10.80;;;3.55;;
12112;SDS011;6120;52.250;8.478;2023-10-13T11:27:39;12.27;;;3.72;;
12112;SDS011;6120;52.250;8.478;2023-10-13T11:30:22;12.13;;;4.25;;
12112;SDS011;6120;52.250;8.478;2023-10-13T11:33:05;11.90;;;4.32;;
12112;SDS011;6120;52.250;8.478;2023-10-13T11:35:36;9.18;;;3.55;;
12112;SDS011;6120;52.250;8.478;2023-10-13T11:38:26;15.85;;;4.57;;
12112;SDS011;6120;52.250;8.478;2023-10-13T11:41:15;10.15;;;3.90;;
12112;SDS011;6120;52.250;8.478;2023-10-13T11:43:46;9.02;;;4.15;;
12112;SDS011;6120;52.250;8.478;2023-10-13T11:46:22;10.57;;;4.40;;
12112;SDS011;6120;52.250;8.478;2023-10-13T11:49:03;17.60;;;4.55;;
12112;SDS011;6120;52.250;8.478;2023-10-13T11:51:40;9.93;;;4.05;;
12112;SDS011;6120;52.250;8.478;2023-10-13T11:54:18;21.73;;;5.18;;
12112;SDS011;6120;52.250;8.478;2023-10-13T11:56:46;12.38;;;4.07;;
12112;SDS011;6120;52.250;8.478;2023-10-13T11:59:13;14.15;;;3.40;;
12112;SDS011;6120;52.250;8.478;2023-10-13T12:01:45;10.32;;;3.80;;
12112;SDS011;6120;52.250;8.478;2023-10-13T12:04:30;17.98;;;4.55;;
12112;SDS011;6120;52.250;8.478;2023-10-13T12:06:59;13.98;;;3.78;;
12112;SDS011;6120;52.250;8.478;2023-10-13T12:09:41;12.32;;;4.00;;
12112;SDS011;6120;52.250;8.478;2023-10-13T12:12:18;9.13;;;3.80;;
12112;SDS011;6120;52.250;8.478;2023-10-13T12:14:45;14.13;;;3.80;;
12112;SDS011;6120;52.250;8.478;2023-10-13T12:19:52;9.98;;;4.28;;
12112;SDS011;6120;52.250;8.478;2023-10-13T12:22:19;13.27;;;4.28;;
12112;SDS011;6120;52.250;8.478;2023-10-13T12:24:56;12.00;;;4.85;;
12112;SDS011;6120;52.250;8.478;2023-10-13T12:27:23;11.77;;;3.90;;
12112;SDS011;6120;52.250;8.478;2023-10-13T12:29:53;8.63;;;3.58;;
12112;SDS011;6120;52.250;8.478;2023-10-13T12:32:22;14.13;;;4.63;;
12112;SDS011;6120;52.250;8.478;2023-10-13T12:34:57;10.70;;;3.92;;
12112;SDS011;6120;52.250;8.478;2023-10-13T12:37:47;13.65;;;3.95;;
12112;SDS011;6120;52.250;8.478;2023-10-13T12:40:14;16.40;;;4.60;;
12112;SDS011;6120;52.250;8.478;2023-10-13T12:42:59;13.73;;;4.93;;
12112;SDS011;6120;52.250;8.478;2023-10-13T12:45:46;13.45;;;3.80;;
12112;SDS011;6120;52.250;8.478;2023-10-13T12:48:32;14.13;;;4.32;;
12112;SDS011;6120;52.250;8.478;2023-10-13T12:51:18;14.43;;;4.15;;
12112;SDS011;6120;52.250;8.478;2023-10-13T12:56:49;21.27;;;4.68;;
12112;SDS011;6120;52.250;8.478;2023-10-13T12:59:23;16.52;;;4.43;;
12112;SDS011;6120;52.250;8.478;2023-10-13T13:01:53;11.00;;;4.50;;
12112;SDS011;6120;52.250;8.478;2023-10-13T13:04:20;13.77;;;4.80;;
12112;SDS011;6120;52.250;8.478;2023-10-13T13:06:48;15.20;;;5.07;;
12112;SDS011;6120;52.250;8.478;2023-10-13T13:09:15;22.40;;;4.55;;
12112;SDS011;6120;52.250;8.478;2023-10-13T13:11:52;11.27;;;3.60;;
12112;SDS011;6120;52.250;8.478;2023-10-13T13:14:24;13.65;;;4.63;;
12112;SDS011;6120;52.250;8.478;2023-10-13T13:16:55;15.32;;;4.35;;
12112;SDS011;6120;52.250;8.478;2023-10-13T13:19:34;12.45;;;4.60;;
12112;SDS011;6120;52.250;8.478;2023-10-13T13:22:05;9.13;;;3.92;;
12112;SDS011;6120;52.250;8.478;2023-10-13T13:24:42;15.93;;;3.75;;
12112;SDS011;6120;52.250;8.478;2023-10-13T13:27:10;15.98;;;4.18;;
12112;SDS011;6120;52.250;8.478;2023-10-13T13:29:42;17.20;;;4.80;;
12112;SDS011;6120;52.250;8.478;2023-10-13T13:32:10;11.70;;;3.90;;
12112;SDS011;6120;52.250;8.478;2023-10-13T13:34:51;13.02;;;3.75;;
12112;SDS011;6120;52.250;8.478;2023-10-13T13:37:34;18.83;;;4.53;;
12112;SDS011;6120;52.250;8.478;2023-10-13T13:40:04;13.52;;;4.10;;
12112;SDS011;6120;52.250;8.478;2023-10-13T13:42:44;15.00;;;4.80;;
12112;SDS011;6120;52.250;8.478;2023-10-13T13:45:12;14.65;;;4.55;;
12112;SDS011;6120;52.250;8.478;2023-10-13T13:47:50;14.57;;;4.13;;
12112;SDS011;6120;52.250;8.478;2023-10-13T13:50:23;18.00;;;4.50;;
12112;SDS011;6120;52.250;8.478;2023-10-13T13:52:51;12.45;;;4.07;;
12112;SDS011;6120;52.250;8.478;2023-10-13T13:55:19;15.93;;;4.25;;
12112;SDS011;6120;52.250;8.478;2023-10-13T13:57:46;17.65;;;4.35;;
12112;SDS011;6120;52.250;8.478;2023-10-13T14:00:13;20.08;;;4.60;;
12112;SDS011;6120;52.250;8.478;2023-10-13T14:02:43;17.75;;;5.30;;
12112;SDS011;6120;52.250;8.478;2023-10-13T14:05:14;21.45;;;4.63;;
12112;SDS011;6120;52.250;8.478;2023-10-13T14:07:44;10.95;;;4.30;;
12112;SDS011;6120;52.250;8.478;2023-10-13T14:10:16;8.98;;;3.88;;
12112;SDS011;6120;52.250;8.478;2023-10-13T14:12:59;13.38;;;4.38;;
12112;SDS011;6120;52.250;8.478;2023-10-13T14:15:33;16.52;;;4.75;;
12112;SDS011;6120;52.250;8.478;2023-10-13T14:18:07;18.52;;;4.57;;
12112;SDS011;6120;52.250;8.478;2023-10-13T14:20:33;14.25;;;4.18;;
12112;SDS011;6120;52.250;8.478;2023-10-13T14:23:06;12.05;;;4.75;;
12112;SDS011;6120;52.250;8.478;2023-10-13T14:25:35;14.45;;;4.75;;
12112;SDS011;6120;52.250;8.478;2023-10-13T14:28:04;12.63;;;4.13;;
12112;SDS011;6120;52.250;8.478;2023-10-13T14:30:32;10.73;;;4.05;;
12112;SDS011;6120;52.250;8.478;2023-10-13T14:32:59;17.03;;;5.07;;
12112;SDS011;6120;52.250;8.478;2023-10-13T14:35:26;16.90;;;4.07;;
12112;SDS011;6120;52.250;8.478;2023-10-13T14:37:52;12.82;;;4.60;;
12112;SDS011;6120;52.250;8.478;2023-10-13T14:40:19;13.48;;;5.00;;
12112;SDS011;6120;52.250;8.478;2023-10-13T14:42:48;13.02;;;4.00;;
12112;SDS011;6120;52.250;8.478;2023-10-13T14:45:15;11.30;;;3.83;;
12112;SDS011;6120;52.250;8.478;2023-10-13T14:47:44;13.20;;;5.05;;
12112;SDS011;6120;52.250;8.478;2023-10-13T14:50:11;13.43;;;4.65;;
12112;SDS011;6120;52.250;8.478;2023-10-13T14:52:48;17.10;;;5.85;;
12112;SDS011;6120;52.250;8.478;2023-10-13T14:55:16;15.25;;;4.78;;
12112;SDS011;6120;52.250;8.478;2023-10-13T14:57:46;12.68;;;4.32;;
12112;SDS011;6120;52.250;8.478;2023-10-13T15:00:14;15.23;;;4.63;;
12112;SDS011;6120;52.250;8.478;2023-10-13T15:02:43;13.48;;;4.10;;
12112;SDS011;6120;52.250;8.478;2023-10-13T15:05:10;14.68;;;5.15;;
12112;SDS011;6120;52.250;8.478;2023-10-13T15:07:45;10.57;;;4.22;;
12112;SDS011;6120;52.250;8.478;2023-10-13T15:10:13;17.27;;;4.78;;
12112;SDS011;6120;52.250;8.478;2023-10-13T15:12:42;13.13;;;4.60;;
12112;SDS011;6120;52.250;8.478;2023-10-13T15:15:11;10.95;;;3.97;;
12112;SDS011;6120;52.250;8.478;2023-10-13T15:17:42;16.08;;;4.68;;
12112;SDS011;6120;52.250;8.478;2023-10-13T15:20:10;15.90;;;4.47;;
12112;SDS011;6120;52.250;8.478;2023-10-13T15:22:45;17.35;;;5.55;;
12112;SDS011;6120;52.250;8.478;2023-10-13T15:25:16;14.27;;;4.35;;
12112;SDS011;6120;52.250;8.478;2023-10-13T15:27:58;18.70;;;4.15;;
12112;SDS011;6120;52.250;8.478;2023-10-13T15:30:29;14.13;;;4.63;;
12112;SDS011;6120;52.250;8.478;2023-10-13T15:33:18;18.02;;;4.57;;
12112;SDS011;6120;52.250;8.478;2023-10-13T15:35:46;13.45;;;4.65;;
12112;SDS011;6120;52.250;8.478;2023-10-13T15:38:13;22.88;;;4.78;;
12112;SDS011;6120;52.250;8.478;2023-10-13T15:40:44;14.85;;;3.85;;
12112;SDS011;6120;52.250;8.478;2023-10-13T15:43:12;13.38;;;4.93;;
12112;SDS011;6120;52.250;8.478;2023-10-13T15:45:39;10.95;;;4.00;;
12112;SDS011;6120;52.250;8.478;2023-10-13T15:48:06;13.63;;;4.05;;
12112;SDS011;6120;52.250;8.478;2023-10-13T15:50:39;13.02;;;3.92;;
12112;SDS011;6120;52.250;8.478;2023-10-13T15:53:07;14.23;;;4.03;;
12112;SDS011;6120;52.250;8.478;2023-10-13T15:55:36;16.15;;;4.95;;
12112;SDS011;6120;52.250;8.478;2023-10-13T15:58:04;12.30;;;3.70;;
12112;SDS011;6120;52.250;8.478;2023-10-13T16:00:34;15.90;;;3.85;;
12112;SDS011;6120;52.250;8.478;2023-10-13T16:03:02;16.38;;;4.40;;
12112;SDS011;6120;52.250;8.478;2023-10-13T16:05:37;11.02;;;3.88;;
12112;SDS011;6120;52.250;8.478;2023-10-13T16:08:06;17.63;;;4.13;;
12112;SDS011;6120;52.250;8.478;2023-10-13T16:10:40;11.57;;;3.95;;
12112;SDS011;6120;52.250;8.478;2023-10-13T16:13:08;19.65;;;3.97;;
12112;SDS011;6120;52.250;8.478;2023-10-13T16:15:43;8.32;;;3.58;;
12112;SDS011;6120;52.250;8.478;2023-10-13T16:18:10;15.57;;;4.18;;
12112;SDS011;6120;52.250;8.478;2023-10-13T16:20:37;13.63;;;4.68;;
12112;SDS011;6120;52.250;8.478;2023-10-13T16:23:04;18.92;;;3.90;;
12112;SDS011;6120;52.250;8.478;2023-10-13T16:25:35;12.35;;;3.75;;
12112;SDS011;6120;52.250;8.478;2023-10-13T16:28:02;11.32;;;3.45;;
12112;SDS011;6120;52.250;8.478;2023-10-13T16:30:29;16.13;;;4.65;;
12112;SDS011;6120;52.250;8.478;2023-10-13T16:32:56;12.75;;;4.53;;
12112;SDS011;6120;52.250;8.478;2023-10-13T16:35:23;14.52;;;4.47;;
12112;SDS011;6120;52.250;8.478;2023-10-13T16:37:50;14.98;;;3.60;;
12112;SDS011;6120;52.250;8.478;2023-10-13T16:40:20;18.50;;;4.70;;
12112;SDS011;6120;52.250;8.478;2023-10-13T16:42:48;13.55;;;4.05;;
12112;SDS011;6120;52.250;8.478;2023-10-13T16:45:15;12.57;;;4.10;;
12112;SDS011;6120;52.250;8.478;2023-10-13T16:47:47;17.55;;;4.38;;
12112;SDS011;6120;52.250;8.478;2023-10-13T16:50:14;16.50;;;3.88;;
12112;SDS011;6120;52.250;8.478;2023-10-13T16:52:45;13.07;;;3.92;;
12112;SDS011;6120;52.250;8.478;2023-10-13T16:55:13;13.10;;;3.90;;
12112;SDS011;6120;52.250;8.478;2023-10-13T16:57:40;21.25;;;4.40;;